sensor_id;sensor_type;location;lat;lon;timestamp;temperature;humidity
32334;DHT22;18810;53.040;8.850;2023-03-01T00:00:16;0.50;99.90
32334;DHT22;18810;53.040;8.850;2023-03-01T00:02:42;0.50;99.90
32334;DHT22;18810;53.040;8.850;2023-03-01T00:05:07;0.40;99.90
32334;DHT22;18810;53.040;8.850;2023-03-01T00:07:33;0.40;99.90
32334;DHT22;18810;53.040;8.850;2023-03-01T00:10:02;0.50;99.90
32334;DHT22;18810;53.040;8.850;2023-03-01T00:12:28;0.40;99.90
32334;DHT22;18810;53.040;8.850;2023-03-01T00:14:57;0.40;99.90
32334;DHT22;18810;53.040;8.850;2023-03-01T00:17:22;0.30;99.90
32334;DHT22;18810;53.040;8.850;2023-03-01T00:19:48;0.20;99.90
32334;DHT22;18810;53.040;8.850;2023-03-01T00:22:14;0.20;99.90
32334;DHT22;18810;53.040;8.850;2023-03-01T00:24:39;0.20;99.90
32334;DHT22;18810;53.040;8.850;2023-03-01T00:27:05;0.20;99.90
32334;DHT22;18810;53.040;8.850;2023-03-01T00:29:31;0.30;99.90
32334;DHT22;18810;53.040;8.850;2023-03-01T00:31:57;0.20;99.90
32334;DHT22;18810;53.040;8.850;2023-03-01T00:34:26;0.20;99.90
32334;DHT22;18810;53.040;8.850;2023-03-01T00:36:52;0.20;99.90
32334;DHT22;18810;53.040;8.850;2023-03-01T00:39:17;0.20;99.90
32334;DHT22;18810;53.040;8.850;2023-03-01T00:41:43;0.10;99.90
32334;DHT22;18810;53.040;8.850;2023-03-01T00:44:10;0.00;99.90
32334;DHT22;18810;53.040;8.850;2023-03-01T00:46:35;0.00;99.90
32334;DHT22;18810;53.040;8.850;2023-03-01T00:49:01;-0.10;99.90
32334;DHT22;18810;53.040;8.850;2023-03-01T00:51:28;0.00;99.90
32334;DHT22;18810;53.040;8.850;2023-03-01T00:53:55;0.00;99.90
32334;DHT22;18810;53.040;8.850;2023-03-01T00:56:22;-0.10;99.90
32334;DHT22;18810;53.040;8.850;2023-03-01T00:58:48;-0.10;99.90
32334;DHT22;18810;53.040;8.850;2023-03-01T01:01:23;-0.10;99.90
32334;DHT22;18810;53.040;8.850;2023-03-01T01:03:55;-0.10;99.90
32334;DHT22;18810;53.040;8.850;2023-03-01T01:06:24;-0.20;99.90
32334;DHT22;18810;53.040;8.850;2023-03-01T01:08:51;-0.20;99.90
32334;DHT22;18810;53.040;8.850;2023-03-01T01:11:18;-0.20;99.90
32334;DHT22;18810;53.040;8.850;2023-03-01T01:13:45;-0.30;99.90
32334;DHT22;18810;53.040;8.850;2023-03-01T01:16:12;-0.20;99.90
32334;DHT22;18810;53.040;8.850;2023-03-01T01:18:38;-0.20;99.90
32334;DHT22;18810;53.040;8.850;2023-03-01T01:21:09;-0.20;99.90
32334;DHT22;18810;53.040;8.850;2023-03-01T01:23:36;-0.30;99.90
32334;DHT22;18810;53.040;8.850;2023-03-01T01:26:11;-0.30;99.90
32334;DHT22;18810;53.040;8.850;2023-03-01T01:28:37;-0.30;99.90
32334;DHT22;18810;53.040;8.850;2023-03-01T01:31:04;-0.40;99.90
32334;DHT22;18810;53.040;8.850;2023-03-01T01:33:30;-0.50;99.90
32334;DHT22;18810;53.040;8.850;2023-03-01T01:35:56;-0.50;99.90
32334;DHT22;18810;53.040;8.850;2023-03-01T01:38:22;-0.50;99.90
32334;DHT22;18810;53.040;8.850;2023-03-01T01:40:48;-0.50;99.90
32334;DHT22;18810;53.040;8.850;2023-03-01T01:43:29;-0.50;99.90
32334;DHT22;18810;53.040;8.850;2023-03-01T01:46:21;-0.50;99.90
32334;DHT22;18810;53.040;8.850;2023-03-01T01:48:55;-0.50;99.90
32334;DHT22;18810;53.040;8.850;2023-03-01T01:51:29;-0.50;99.90
32334;DHT22;18810;53.040;8.850;2023-03-01T01:54:08;-0.40;99.90
32334;DHT22;18810;53.040;8.850;2023-03-01T01:56:37;-0.60;99.90
32334;DHT22;18810;53.040;8.850;2023-03-01T01:59:05;-0.50;99.90
32334;DHT22;18810;53.040;8.850;2023-03-01T02:01:31;-0.50;99.90
32334;DHT22;18810;53.040;8.850;2023-03-01T02:03:56;-0.50;99.90
32334;DHT22;18810;53.040;8.850;2023-03-01T02:06:29;-0.50;99.90
32334;DHT22;18810;53.040;8.850;2023-03-01T02:09:04;-0.50;99.90
32334;DHT22;18810;53.040;8.850;2023-03-01T02:11:32;-0.40;99.90
32334;DHT22;18810;53.040;8.850;2023-03-01T02:13:59;-0.50;99.90
32334;DHT22;18810;53.040;8.850;2023-03-01T02:16:26;-0.30;99.90
32334;DHT22;18810;53.040;8.850;2023-03-01T02:18:52;-0.50;99.90
32334;DHT22;18810;53.040;8.850;2023-03-01T02:24:21;-0.50;99.90
32334;DHT22;18810;53.040;8.850;2023-03-01T02:26:52;-0.60;99.90
32334;DHT22;18810;53.040;8.850;2023-03-01T02:29:21;-0.60;99.90
32334;DHT22;18810;53.040;8.850;2023-03-01T02:31:47;-0.60;99.90
32334;DHT22;18810;53.040;8.850;2023-03-01T02:34:22;-0.60;99.90
32334;DHT22;18810;53.040;8.850;2023-03-01T02:37:04;-0.60;99.90
32334;DHT22;18810;53.040;8.850;2023-03-01T02:39:38;-0.70;99.90
32334;DHT22;18810;53.040;8.850;2023-03-01T02:42:11;-0.70;99.90
32334;DHT22;18810;53.040;8.850;2023-03-01T02:44:38;-0.70;99.90
32334;DHT22;18810;53.040;8.850;2023-03-01T02:47:04;-0.70;99.90
32334;DHT22;18810;53.040;8.850;2023-03-01T02:49:34;-0.70;99.90
32334;DHT22;18810;53.040;8.850;2023-03-01T02:52:23;-0.80;99.90
32334;DHT22;18810;53.040;8.850;2023-03-01T02:55:14;-0.80;99.90
32334;DHT22;18810;53.040;8.850;2023-03-01T02:57:45;-0.80;99.90
32334;DHT22;18810;53.040;8.850;2023-03-01T03:00:15;-0.80;99.90
32334;DHT22;18810;53.040;8.850;2023-03-01T03:02:50;-0.80;99.90
32334;DHT22;18810;53.040;8.850;2023-03-01T03:05:30;-0.80;99.90
32334;DHT22;18810;53.040;8.850;2023-03-01T03:07:57;-0.80;99.90
32334;DHT22;18810;53.040;8.850;2023-03-01T03:10:31;-0.70;99.90
32334;DHT22;18810;53.040;8.850;2023-03-01T03:12:59;-0.80;99.90
32334;DHT22;18810;53.040;8.850;2023-03-01T03:15:29;-0.80;99.90
32334;DHT22;18810;53.040;8.850;2023-03-01T03:17:56;-0.80;99.90
32334;DHT22;18810;53.040;8.850;2023-03-01T03:20:26;-0.80;99.90
32334;DHT22;18810;53.040;8.850;2023-03-01T03:22:55;-0.90;99.90
32334;DHT22;18810;53.040;8.850;2023-03-01T03:25:22;-0.90;99.90
32334;DHT22;18810;53.040;8.850;2023-03-01T03:27:50;-1.00;99.90
32334;DHT22;18810;53.040;8.850;2023-03-01T03:30:24;-1.00;99.90
32334;DHT22;18810;53.040;8.850;2023-03-01T03:32:50;-1.10;99.90
32334;DHT22;18810;53.040;8.850;2023-03-01T03:35:30;-1.10;99.90
32334;DHT22;18810;53.040;8.850;2023-03-01T03:38:03;-1.10;99.90
32334;DHT22;18810;53.040;8.850;2023-03-01T03:40:36;-1.10;99.90
32334;DHT22;18810;53.040;8.850;2023-03-01T03:43:04;-1.10;99.90
32334;DHT22;18810;53.040;8.850;2023-03-01T03:45:30;-1.20;99.90
32334;DHT22;18810;53.040;8.850;2023-03-01T03:47:59;-1.10;99.90
32334;DHT22;18810;53.040;8.850;2023-03-01T03:50:24;-1.10;99.90
32334;DHT22;18810;53.040;8.850;2023-03-01T03:52:50;-1.20;99.90
32334;DHT22;18810;53.040;8.850;2023-03-01T03:55:16;-1.30;99.90
32334;DHT22;18810;53.040;8.850;2023-03-01T03:57:46;-1.30;99.90
32334;DHT22;18810;53.040;8.850;2023-03-01T04:00:21;-1.40;99.90
32334;DHT22;18810;53.040;8.850;2023-03-01T04:02:48;-1.40;99.90
32334;DHT22;18810;53.040;8.850;2023-03-01T04:05:16;-1.50;99.90
32334;DHT22;18810;53.040;8.850;2023-03-01T04:07:42;-1.50;99.90
32334;DHT22;18810;53.040;8.850;2023-03-01T04:10:17;-1.50;99.90
32334;DHT22;18810;53.040;8.850;2023-03-01T04:12:43;-1.50;99.90
32334;DHT22;18810;53.040;8.850;2023-03-01T04:15:10;-1.50;99.90
32334;DHT22;18810;53.040;8.850;2023-03-01T04:17:44;-1.50;99.90
32334;DHT22;18810;53.040;8.850;2023-03-01T04:20:12;-1.50;99.90
32334;DHT22;18810;53.040;8.850;2023-03-01T04:22:39;-1.40;99.90
32334;DHT22;18810;53.040;8.850;2023-03-01T04:25:05;-1.40;99.90
32334;DHT22;18810;53.040;8.850;2023-03-01T04:27:35;-1.50;99.90
32334;DHT22;18810;53.040;8.850;2023-03-01T04:30:02;-1.40;99.90
32334;DHT22;18810;53.040;8.850;2023-03-01T04:32:28;-1.40;99.90
32334;DHT22;18810;53.040;8.850;2023-03-01T04:34:54;-1.50;99.90
32334;DHT22;18810;53.040;8.850;2023-03-01T04:37:20;-1.50;99.90
32334;DHT22;18810;53.040;8.850;2023-03-01T04:39:45;-1.50;99.90
32334;DHT22;18810;53.040;8.850;2023-03-01T04:42:16;-1.50;99.90
32334;DHT22;18810;53.040;8.850;2023-03-01T04:44:43;-1.60;99.90
32334;DHT22;18810;53.040;8.850;2023-03-01T04:47:09;-1.60;99.90
32334;DHT22;18810;53.040;8.850;2023-03-01T04:49:34;-1.60;99.90
32334;DHT22;18810;53.040;8.850;2023-03-01T04:52:00;-1.60;99.90
32334;DHT22;18810;53.040;8.850;2023-03-01T04:54:30;-1.60;99.90
32334;DHT22;18810;53.040;8.850;2023-03-01T04:56:56;-1.60;99.90
32334;DHT22;18810;53.040;8.850;2023-03-01T04:59:22;-1.60;99.90
32334;DHT22;18810;53.040;8.850;2023-03-01T05:01:51;-1.60;99.90
32334;DHT22;18810;53.040;8.850;2023-03-01T05:04:17;-1.60;99.90
32334;DHT22;18810;53.040;8.850;2023-03-01T05:06:43;-1.60;99.90
32334;DHT22;18810;53.040;8.850;2023-03-01T05:09:10;-1.60;99.90
32334;DHT22;18810;53.040;8.850;2023-03-01T05:11:37;-1.60;99.90
32334;DHT22;18810;53.040;8.850;2023-03-01T05:14:03;-1.60;99.90
32334;DHT22;18810;53.040;8.850;2023-03-01T05:16:29;-1.70;99.90
32334;DHT22;18810;53.040;8.850;2023-03-01T05:18:56;-1.70;99.90
32334;DHT22;18810;53.040;8.850;2023-03-01T05:21:22;-1.80;99.90
32334;DHT22;18810;53.040;8.850;2023-03-01T05:23:48;-1.80;99.90
32334;DHT22;18810;53.040;8.850;2023-03-01T05:26:15;-1.80;99.90
32334;DHT22;18810;53.040;8.850;2023-03-01T05:28:41;-1.80;99.90
32334;DHT22;18810;53.040;8.850;2023-03-01T05:31:07;-1.70;99.90
32334;DHT22;18810;53.040;8.850;2023-03-01T05:33:39;-1.70;99.90
32334;DHT22;18810;53.040;8.850;2023-03-01T05:36:06;-1.70;99.90
32334;DHT22;18810;53.040;8.850;2023-03-01T05:38:33;-1.70;99.90
32334;DHT22;18810;53.040;8.850;2023-03-01T05:40:59;-1.80;99.90
32334;DHT22;18810;53.040;8.850;2023-03-01T05:43:24;-1.80;99.90
32334;DHT22;18810;53.040;8.850;2023-03-01T05:45:50;-1.80;99.90
32334;DHT22;18810;53.040;8.850;2023-03-01T05:48:16;-1.80;99.90
32334;DHT22;18810;53.040;8.850;2023-03-01T05:50:45;-1.80;99.90
32334;DHT22;18810;53.040;8.850;2023-03-01T05:53:18;-1.80;99.90
32334;DHT22;18810;53.040;8.850;2023-03-01T05:55:45;-1.80;99.90
32334;DHT22;18810;53.040;8.850;2023-03-01T05:58:15;-1.70;99.90
32334;DHT22;18810;53.040;8.850;2023-03-01T06:00:41;-1.70;99.90
32334;DHT22;18810;53.040;8.850;2023-03-01T06:03:13;-1.80;99.90
32334;DHT22;18810;53.040;8.850;2023-03-01T06:05:40;-1.70;99.90
32334;DHT22;18810;53.040;8.850;2023-03-01T06:08:06;-1.70;99.90
32334;DHT22;18810;53.040;8.850;2023-03-01T06:10:32;-1.70;99.90
32334;DHT22;18810;53.040;8.850;2023-03-01T06:12:58;-1.70;99.90
32334;DHT22;18810;53.040;8.850;2023-03-01T06:15:24;-1.70;99.90
32334;DHT22;18810;53.040;8.850;2023-03-01T06:17:50;-1.70;99.90
32334;DHT22;18810;53.040;8.850;2023-03-01T06:20:19;-1.80;99.90
32334;DHT22;18810;53.040;8.850;2023-03-01T06:22:45;-1.70;99.90
32334;DHT22;18810;53.040;8.850;2023-03-01T06:25:13;-1.70;99.90
32334;DHT22;18810;53.040;8.850;2023-03-01T06:27:40;-1.70;99.90
32334;DHT22;18810;53.040;8.850;2023-03-01T06:30:07;-1.70;99.90
32334;DHT22;18810;53.040;8.850;2023-03-01T06:32:33;-1.70;99.90
32334;DHT22;18810;53.040;8.850;2023-03-01T06:34:59;-1.60;99.90
32334;DHT22;18810;53.040;8.850;2023-03-01T06:37:25;-1.50;99.90
32334;DHT22;18810;53.040;8.850;2023-03-01T06:39:51;-1.50;99.90
32334;DHT22;18810;53.040;8.850;2023-03-01T06:42:17;-1.50;99.90
32334;DHT22;18810;53.040;8.850;2023-03-01T06:44:44;-1.40;99.90
32334;DHT22;18810;53.040;8.850;2023-03-01T06:47:09;-1.20;99.90
32334;DHT22;18810;53.040;8.850;2023-03-01T06:49:35;-1.10;99.90
32334;DHT22;18810;53.040;8.850;2023-03-01T06:52:01;-0.90;99.90
32334;DHT22;18810;53.040;8.850;2023-03-01T06:54:27;-0.80;99.90
32334;DHT22;18810;53.040;8.850;2023-03-01T06:56:52;-0.60;99.90
32334;DHT22;18810;53.040;8.850;2023-03-01T06:59:18;-0.30;99.90
32334;DHT22;18810;53.040;8.850;2023-03-01T07:01:44;-0.10;99.90
32334;DHT22;18810;53.040;8.850;2023-03-01T07:04:11;0.10;99.90
32334;DHT22;18810;53.040;8.850;2023-03-01T07:06:36;0.70;99.90
32334;DHT22;18810;53.040;8.850;2023-03-01T07:09:02;0.40;99.90
32334;DHT22;18810;53.040;8.850;2023-03-01T07:11:28;0.70;99.90
32334;DHT22;18810;53.040;8.850;2023-03-01T07:13:53;0.90;99.90
32334;DHT22;18810;53.040;8.850;2023-03-01T07:16:20;1.00;99.90
32334;DHT22;18810;53.040;8.850;2023-03-01T07:18:46;1.20;99.90
32334;DHT22;18810;53.040;8.850;2023-03-01T07:21:13;1.40;99.90
32334;DHT22;18810;53.040;8.850;2023-03-01T07:23:39;1.60;99.90
32334;DHT22;18810;53.040;8.850;2023-03-01T07:26:05;1.70;99.90
32334;DHT22;18810;53.040;8.850;2023-03-01T07:28:31;1.80;99.90
32334;DHT22;18810;53.040;8.850;2023-03-01T07:31:05;2.60;99.90
32334;DHT22;18810;53.040;8.850;2023-03-01T07:33:31;1.70;99.90
32334;DHT22;18810;53.040;8.850;2023-03-01T07:36:02;1.60;99.90
32334;DHT22;18810;53.040;8.850;2023-03-01T07:38:28;1.70;99.90
32334;DHT22;18810;53.040;8.850;2023-03-01T07:40:58;1.80;99.90
32334;DHT22;18810;53.040;8.850;2023-03-01T07:43:25;2.00;99.90
32334;DHT22;18810;53.040;8.850;2023-03-01T07:45:50;2.10;99.90
32334;DHT22;18810;53.040;8.850;2023-03-01T07:48:16;2.20;99.90
32334;DHT22;18810;53.040;8.850;2023-03-01T07:50:42;2.30;99.90
32334;DHT22;18810;53.040;8.850;2023-03-01T07:53:09;2.40;99.90
32334;DHT22;18810;53.040;8.850;2023-03-01T07:55:35;2.40;99.90
32334;DHT22;18810;53.040;8.850;2023-03-01T07:58:01;2.50;99.90
32334;DHT22;18810;53.040;8.850;2023-03-01T08:00:27;2.50;99.90
32334;DHT22;18810;53.040;8.850;2023-03-01T08:02:53;2.60;99.90
32334;DHT22;18810;53.040;8.850;2023-03-01T08:05:18;2.70;99.90
32334;DHT22;18810;53.040;8.850;2023-03-01T08:07:44;2.90;99.90
32334;DHT22;18810;53.040;8.850;2023-03-01T08:10:10;3.10;99.90
32334;DHT22;18810;53.040;8.850;2023-03-01T08:12:36;3.30;99.90
32334;DHT22;18810;53.040;8.850;2023-03-01T08:15:02;3.50;99.90
32334;DHT22;18810;53.040;8.850;2023-03-01T08:17:28;3.70;99.90
32334;DHT22;18810;53.040;8.850;2023-03-01T08:19:53;4.00;99.90
32334;DHT22;18810;53.040;8.850;2023-03-01T08:22:19;4.20;99.90
32334;DHT22;18810;53.040;8.850;2023-03-01T08:24:46;4.50;99.90
32334;DHT22;18810;53.040;8.850;2023-03-01T08:27:11;4.60;99.90
32334;DHT22;18810;53.040;8.850;2023-03-01T08:29:37;4.80;99.90
32334;DHT22;18810;53.040;8.850;2023-03-01T08:32:03;4.90;99.90
32334;DHT22;18810;53.040;8.850;2023-03-01T08:34:29;4.80;99.90
32334;DHT22;18810;53.040;8.850;2023-03-01T08:36:56;4.60;99.90
32334;DHT22;18810;53.040;8.850;2023-03-01T08:39:22;4.50;99.90
32334;DHT22;18810;53.040;8.850;2023-03-01T08:41:48;4.50;99.90
32334;DHT22;18810;53.040;8.850;2023-03-01T08:44:14;4.40;99.90
32334;DHT22;18810;53.040;8.850;2023-03-01T08:46:42;4.30;99.90
32334;DHT22;18810;53.040;8.850;2023-03-01T08:49:14;4.40;99.90
32334;DHT22;18810;53.040;8.850;2023-03-01T08:51:40;4.50;99.90
32334;DHT22;18810;53.040;8.850;2023-03-01T08:54:09;4.50;99.90
32334;DHT22;18810;53.040;8.850;2023-03-01T08:56:36;4.70;99.90
32334;DHT22;18810;53.040;8.850;2023-03-01T08:59:02;4.70;99.90
32334;DHT22;18810;53.040;8.850;2023-03-01T09:01:28;4.80;99.90
32334;DHT22;18810;53.040;8.850;2023-03-01T09:03:54;4.90;99.90
32334;DHT22;18810;53.040;8.850;2023-03-01T09:06:20;5.10;99.90
32334;DHT22;18810;53.040;8.850;2023-03-01T09:08:47;5.30;99.90
32334;DHT22;18810;53.040;8.850;2023-03-01T09:11:19;5.50;99.90
32334;DHT22;18810;53.040;8.850;2023-03-01T09:13:46;5.70;99.90
32334;DHT22;18810;53.040;8.850;2023-03-01T09:16:15;5.80;99.90
32334;DHT22;18810;53.040;8.850;2023-03-01T09:18:42;6.00;99.90
32334;DHT22;18810;53.040;8.850;2023-03-01T09:21:10;6.30;99.90
32334;DHT22;18810;53.040;8.850;2023-03-01T09:23:38;6.70;99.90
32334;DHT22;18810;53.040;8.850;2023-03-01T09:26:09;6.80;99.90
32334;DHT22;18810;53.040;8.850;2023-03-01T09:28:36;7.20;99.90
32334;DHT22;18810;53.040;8.850;2023-03-01T09:31:03;7.60;99.90
32334;DHT22;18810;53.040;8.850;2023-03-01T09:33:31;7.90;99.90
32334;DHT22;18810;53.040;8.850;2023-03-01T09:36:01;8.30;99.90
32334;DHT22;18810;53.040;8.850;2023-03-01T09:38:28;8.60;99.90
32334;DHT22;18810;53.040;8.850;2023-03-01T09:40:54;8.70;99.90
32334;DHT22;18810;53.040;8.850;2023-03-01T09:43:49;9.00;99.90
32334;DHT22;18810;53.040;8.850;2023-03-01T09:46:20;9.20;99.40
32334;DHT22;18810;53.040;8.850;2023-03-01T09:48:57;9.60;99.10
32334;DHT22;18810;53.040;8.850;2023-03-01T09:51:30;10.00;98.60
32334;DHT22;18810;53.040;8.850;2023-03-01T09:53:57;10.40;97.80
32334;DHT22;18810;53.040;8.850;2023-03-01T10:04:48;11.50;94.80
32334;DHT22;18810;53.040;8.850;2023-03-01T10:07:29;11.70;94.10
32334;DHT22;18810;53.040;8.850;2023-03-01T10:09:58;11.90;93.90
32334;DHT22;18810;53.040;8.850;2023-03-01T10:12:31;12.20;92.50
32334;DHT22;18810;53.040;8.850;2023-03-01T10:15:08;12.50;91.40
32334;DHT22;18810;53.040;8.850;2023-03-01T10:17:39;12.80;90.90
32334;DHT22;18810;53.040;8.850;2023-03-01T10:20:23;12.80;90.90
32334;DHT22;18810;53.040;8.850;2023-03-01T10:22:50;13.30;90.10
32334;DHT22;18810;53.040;8.850;2023-03-01T10:28:29;13.40;88.00
32334;DHT22;18810;53.040;8.850;2023-03-01T10:30:58;13.30;87.80
32334;DHT22;18810;53.040;8.850;2023-03-01T10:33:31;13.60;88.50
32334;DHT22;18810;53.040;8.850;2023-03-01T10:35:58;13.90;87.90
32334;DHT22;18810;53.040;8.850;2023-03-01T10:38:24;14.40;86.60
32334;DHT22;18810;53.040;8.850;2023-03-01T10:41:19;14.60;83.90
32334;DHT22;18810;53.040;8.850;2023-03-01T10:43:50;14.90;82.60
32334;DHT22;18810;53.040;8.850;2023-03-01T10:49:17;14.90;80.70
32334;DHT22;18810;53.040;8.850;2023-03-01T10:51:45;15.20;81.00
32334;DHT22;18810;53.040;8.850;2023-03-01T10:54:39;15.10;80.30
32334;DHT22;18810;53.040;8.850;2023-03-01T10:57:05;15.20;81.70
32334;DHT22;18810;53.040;8.850;2023-03-01T10:59:36;15.00;83.20
32334;DHT22;18810;53.040;8.850;2023-03-01T11:02:28;14.90;84.00
32334;DHT22;18810;53.040;8.850;2023-03-01T11:07:56;15.20;84.40
32334;DHT22;18810;53.040;8.850;2023-03-01T11:10:27;14.80;85.20
32334;DHT22;18810;53.040;8.850;2023-03-01T11:13:05;15.10;85.90
32334;DHT22;18810;53.040;8.850;2023-03-01T11:15:31;15.40;85.50
32334;DHT22;18810;53.040;8.850;2023-03-01T11:17:57;15.60;84.50
32334;DHT22;18810;53.040;8.850;2023-03-01T11:20:31;15.70;83.60
32334;DHT22;18810;53.040;8.850;2023-03-01T11:23:10;16.10;83.50
32334;DHT22;18810;53.040;8.850;2023-03-01T11:25:39;16.50;83.50
32334;DHT22;18810;53.040;8.850;2023-03-01T11:28:10;16.70;82.30
32334;DHT22;18810;53.040;8.850;2023-03-01T11:31:03;16.40;82.90
32334;DHT22;18810;53.040;8.850;2023-03-01T11:38:39;15.60;86.60
32334;DHT22;18810;53.040;8.850;2023-03-01T12:00:25;15.40;87.50
32334;DHT22;18810;53.040;8.850;2023-03-01T12:05:59;16.00;85.20
32334;DHT22;18810;53.040;8.850;2023-03-01T12:14:50;16.70;83.50
32334;DHT22;18810;53.040;8.850;2023-03-01T12:20:26;17.00;83.20
32334;DHT22;18810;53.040;8.850;2023-03-01T12:45:34;19.90;76.60
32334;DHT22;18810;53.040;8.850;2023-03-01T12:50:48;20.00;73.50
32334;DHT22;18810;53.040;8.850;2023-03-01T12:53:27;18.20;76.80
32334;DHT22;18810;53.040;8.850;2023-03-01T12:55:59;16.80;80.50
32334;DHT22;18810;53.040;8.850;2023-03-01T12:58:30;16.60;82.40
32334;DHT22;18810;53.040;8.850;2023-03-01T13:11:48;20.10;73.00
32334;DHT22;18810;53.040;8.850;2023-03-01T13:16:53;19.50;74.40
32334;DHT22;18810;53.040;8.850;2023-03-01T13:19:27;19.00;75.50
32334;DHT22;18810;53.040;8.850;2023-03-01T13:21:58;19.30;75.90
32334;DHT22;18810;53.040;8.850;2023-03-01T13:29:59;19.70;73.50
32334;DHT22;18810;53.040;8.850;2023-03-01T13:32:36;19.50;74.30
32334;DHT22;18810;53.040;8.850;2023-03-01T13:37:43;19.60;75.40
32334;DHT22;18810;53.040;8.850;2023-03-01T13:42:44;19.60;75.10
32334;DHT22;18810;53.040;8.850;2023-03-01T13:45:34;19.20;75.00
32334;DHT22;18810;53.040;8.850;2023-03-01T13:48:23;18.70;75.90
32334;DHT22;18810;53.040;8.850;2023-03-01T13:50:58;18.10;77.40
32334;DHT22;18810;53.040;8.850;2023-03-01T13:53:29;18.00;77.70
32334;DHT22;18810;53.040;8.850;2023-03-01T13:56:20;18.20;77.70
32334;DHT22;18810;53.040;8.850;2023-03-01T13:58:58;17.90;76.70
32334;DHT22;18810;53.040;8.850;2023-03-01T14:01:34;18.10;77.40
32334;DHT22;18810;53.040;8.850;2023-03-01T14:04:02;18.50;76.90
32334;DHT22;18810;53.040;8.850;2023-03-01T14:06:31;18.60;76.80
32334;DHT22;18810;53.040;8.850;2023-03-01T14:09:14;18.60;76.60
32334;DHT22;18810;53.040;8.850;2023-03-01T14:20:30;17.90;78.10
32334;DHT22;18810;53.040;8.850;2023-03-01T14:22:57;17.80;78.00
32334;DHT22;18810;53.040;8.850;2023-03-01T14:28:19;16.40;81.40
32334;DHT22;18810;53.040;8.850;2023-03-01T14:30:49;16.10;83.00
32334;DHT22;18810;53.040;8.850;2023-03-01T14:33:24;16.30;82.90
32334;DHT22;18810;53.040;8.850;2023-03-01T14:38:37;17.30;80.70
32334;DHT22;18810;53.040;8.850;2023-03-01T14:41:12;17.90;79.70
32334;DHT22;18810;53.040;8.850;2023-03-01T14:43:44;18.40;78.10
32334;DHT22;18810;53.040;8.850;2023-03-01T14:46:23;18.50;77.80
32334;DHT22;18810;53.040;8.850;2023-03-01T14:48:56;18.90;77.20
32334;DHT22;18810;53.040;8.850;2023-03-01T14:51:23;19.30;75.70
32334;DHT22;18810;53.040;8.850;2023-03-01T14:53:50;19.70;75.20
32334;DHT22;18810;53.040;8.850;2023-03-01T14:56:17;19.70;74.40
32334;DHT22;18810;53.040;8.850;2023-03-01T14:58:46;19.70;73.70
32334;DHT22;18810;53.040;8.850;2023-03-01T15:01:16;18.80;74.80
32334;DHT22;18810;53.040;8.850;2023-03-01T15:03:45;18.00;77.20
32334;DHT22;18810;53.040;8.850;2023-03-01T15:06:19;17.80;78.30
32334;DHT22;18810;53.040;8.850;2023-03-01T15:08:48;17.80;78.40
32334;DHT22;18810;53.040;8.850;2023-03-01T15:13:43;18.60;76.90
32334;DHT22;18810;53.040;8.850;2023-03-01T15:16:29;18.50;77.00
32334;DHT22;18810;53.040;8.850;2023-03-01T15:19:02;18.30;78.50
32334;DHT22;18810;53.040;8.850;2023-03-01T15:26:42;17.80;78.50
32334;DHT22;18810;53.040;8.850;2023-03-01T15:29:17;17.40;79.60
32334;DHT22;18810;53.040;8.850;2023-03-01T15:31:52;16.80;82.00
32334;DHT22;18810;53.040;8.850;2023-03-01T15:34:25;16.80;81.30
32334;DHT22;18810;53.040;8.850;2023-03-01T15:36:57;16.40;82.00
32334;DHT22;18810;53.040;8.850;2023-03-01T15:41:50;15.00;85.40
32334;DHT22;18810;53.040;8.850;2023-03-01T15:44:18;14.50;87.20
32334;DHT22;18810;53.040;8.850;2023-03-01T15:46:50;14.20;88.50
32334;DHT22;18810;53.040;8.850;2023-03-01T15:52:00;14.20;90.00
32334;DHT22;18810;53.040;8.850;2023-03-01T15:54:27;14.30;90.40
32334;DHT22;18810;53.040;8.850;2023-03-01T15:56:53;14.30;91.00
32334;DHT22;18810;53.040;8.850;2023-03-01T15:59:19;14.40;90.70
32334;DHT22;18810;53.040;8.850;2023-03-01T16:01:45;14.50;90.80
32334;DHT22;18810;53.040;8.850;2023-03-01T16:04:16;14.50;90.90
32334;DHT22;18810;53.040;8.850;2023-03-01T16:06:55;14.40;90.70
32334;DHT22;18810;53.040;8.850;2023-03-01T16:09:22;14.10;90.90
32334;DHT22;18810;53.040;8.850;2023-03-01T16:11:49;13.90;91.30
32334;DHT22;18810;53.040;8.850;2023-03-01T16:14:15;13.90;91.10
32334;DHT22;18810;53.040;8.850;2023-03-01T16:16:42;13.80;91.20
32334;DHT22;18810;53.040;8.850;2023-03-01T16:19:08;13.60;91.40
32334;DHT22;18810;53.040;8.850;2023-03-01T16:21:34;13.40;91.90
32334;DHT22;18810;53.040;8.850;2023-03-01T16:24:00;13.20;92.10
32334;DHT22;18810;53.040;8.850;2023-03-01T16:26:26;13.10;92.50
32334;DHT22;18810;53.040;8.850;2023-03-01T16:28:55;13.00;92.60
32334;DHT22;18810;53.040;8.850;2023-03-01T16:31:21;12.70;93.20
32334;DHT22;18810;53.040;8.850;2023-03-01T16:33:47;12.60;93.50
32334;DHT22;18810;53.040;8.850;2023-03-01T16:36:17;12.50;93.70
32334;DHT22;18810;53.040;8.850;2023-03-01T16:38:43;12.30;93.80
32334;DHT22;18810;53.040;8.850;2023-03-01T16:41:14;12.00;94.60
32334;DHT22;18810;53.040;8.850;2023-03-01T16:43:40;11.60;95.00
32334;DHT22;18810;53.040;8.850;2023-03-01T16:46:11;11.50;95.40
32334;DHT22;18810;53.040;8.850;2023-03-01T16:48:37;11.40;95.70
32334;DHT22;18810;53.040;8.850;2023-03-01T16:51:03;11.20;96.30
32334;DHT22;18810;53.040;8.850;2023-03-01T16:53:29;11.00;96.70
32334;DHT22;18810;53.040;8.850;2023-03-01T16:55:58;10.90;97.00
32334;DHT22;18810;53.040;8.850;2023-03-01T16:58:24;10.70;97.50
32334;DHT22;18810;53.040;8.850;2023-03-01T17:00:54;10.50;97.90
32334;DHT22;18810;53.040;8.850;2023-03-01T17:03:21;10.40;98.50
32334;DHT22;18810;53.040;8.850;2023-03-01T17:05:48;10.30;98.80
32334;DHT22;18810;53.040;8.850;2023-03-01T17:08:14;10.10;99.10
32334;DHT22;18810;53.040;8.850;2023-03-01T17:10:39;10.00;99.40
32334;DHT22;18810;53.040;8.850;2023-03-01T17:13:08;9.90;99.90
32334;DHT22;18810;53.040;8.850;2023-03-01T17:15:34;9.90;99.90
32334;DHT22;18810;53.040;8.850;2023-03-01T17:18:00;9.90;99.90
32334;DHT22;18810;53.040;8.850;2023-03-01T17:20:27;9.80;99.90
32334;DHT22;18810;53.040;8.850;2023-03-01T17:22:52;9.70;99.90
32334;DHT22;18810;53.040;8.850;2023-03-01T17:25:18;9.70;99.90
32334;DHT22;18810;53.040;8.850;2023-03-01T17:27:44;9.60;99.90
32334;DHT22;18810;53.040;8.850;2023-03-01T17:30:11;9.40;99.90
32334;DHT22;18810;53.040;8.850;2023-03-01T17:32:37;9.30;99.90
32334;DHT22;18810;53.040;8.850;2023-03-01T17:35:03;9.10;99.90
32334;DHT22;18810;53.040;8.850;2023-03-01T17:37:29;9.00;99.90
32334;DHT22;18810;53.040;8.850;2023-03-01T17:39:55;9.00;99.90
32334;DHT22;18810;53.040;8.850;2023-03-01T17:42:21;8.90;99.90
32334;DHT22;18810;53.040;8.850;2023-03-01T17:44:46;8.80;99.90
32334;DHT22;18810;53.040;8.850;2023-03-01T17:47:12;8.80;99.90
32334;DHT22;18810;53.040;8.850;2023-03-01T17:49:38;8.80;99.90
32334;DHT22;18810;53.040;8.850;2023-03-01T17:52:04;8.70;99.90
32334;DHT22;18810;53.040;8.850;2023-03-01T17:54:29;8.50;99.90
32334;DHT22;18810;53.040;8.850;2023-03-01T17:56:58;8.50;99.90
32334;DHT22;18810;53.040;8.850;2023-03-01T17:59:24;8.50;99.90